This is the latest recevied weather packets stored in our database for station/object KE8WAY. If no packets are shown the sender has not sent any weather packets the latest 10 day(s).
| Time | Temp. | Humidity | Pressure | Rain* | Wind** | Luminosity | Snow |
|---|---|---|---|---|---|---|---|
| 1777738675 | 6.11° C | 57% | 1018 hPa | 0 mm | - | 111 W/m² | - |
| 1777738372 | 6.11° C | 60% | 1017.9 hPa | 0 mm | - | 104 W/m² | - |
| 1777738070 | 6.11° C | 56% | 1018 hPa | 0 mm | - | 99 W/m² | - |
| 1777737769 | 6.11° C | 59% | 1017.8 hPa | 0 mm | - | 87 W/m² | - |
| 1777737467 | 6.11° C | 59% | 1017.9 hPa | 0 mm | - | 75 W/m² | - |
| 1777737165 | 6.11° C | 58% | 1017.7 hPa | 0 mm | - | 98 W/m² | - |
| 1777736859 | 6.67° C | 56% | 1017.8 hPa | 0 mm | - | 163 W/m² | - |
| 1777736247 | 6.67° C | 60% | 1017.6 hPa | 0 mm | - | 269 W/m² | - |
| 1777735944 | 6.11° C | 59% | 1017.7 hPa | 0 mm | - | 238 W/m² | - |
| 1777735641 | 6.11° C | 58% | 1017.7 hPa | 0 mm | - | 197 W/m² | - |
| 1777735338 | 6.11° C | 60% | 1017.6 hPa | 0 mm | - | 188 W/m² | - |
| 1777735036 | 6.11° C | 61% | 1017.5 hPa | 0 mm | - | 177 W/m² | - |
| 1777734733 | 6.11° C | 59% | 1017.6 hPa | 0 mm | - | 170 W/m² | - |
| 1777734430 | 6.11° C | 61% | 1017.5 hPa | 0 mm | - | 152 W/m² | - |
| 1777734126 | 6.11° C | 61% | 1017.5 hPa | 0 mm | - | 144 W/m² | - |
| 1777733823 | 6.11° C | 62% | 1017.4 hPa | 0 mm | - | 146 W/m² | - |
| 1777733520 | 6.67° C | 61% | 1017.2 hPa | 0 mm | - | 189 W/m² | - |
| 1777733216 | 6.67° C | 59% | 1017.2 hPa | 0 mm | - | 253 W/m² | - |
| 1777732913 | 7.22° C | 58% | 1017.2 hPa | 0 mm | - | 520 W/m² | - |
| 1777732609 | 6.67° C | 65% | 1017.5 hPa | 0 mm | - | 881 W/m² | - |
| 1777732307 | 6.67° C | 65% | 1017 hPa | 0 mm | - | 229 W/m² | - |
| 1777732004 | 6.67° C | 69% | 1017.2 hPa | 0 mm | - | 751 W/m² | - |
| 1777731700 | 6.11° C | 70% | 1017.1 hPa | 0 mm | - | 710 W/m² | - |
| 1777731398 | 6.67° C | 68% | 1017.5 hPa | 0 mm | - | 682 W/m² | - |
| 1777731096 | 6.11° C | 71% | 1017.3 hPa | 0 mm | - | 651 W/m² | - |
* Rain latest hour (hover to see other rain measurements)
** Current wind speed in m/s (hover to see current wind gust speed)